sensor_id;sensor_type;location;lat;lon;timestamp;P1;durP1;ratioP1;P2;durP2;ratioP2
7831;SDS011;3961;42.058;25.586;2023-02-28T00:01:21;20.60;;;7.87;;
7831;SDS011;3961;42.058;25.586;2023-02-28T00:03:47;15.90;;;7.17;;
7831;SDS011;3961;42.058;25.586;2023-02-28T00:06:13;16.63;;;7.40;;
7831;SDS011;3961;42.058;25.586;2023-02-28T00:08:39;19.27;;;7.27;;
7831;SDS011;3961;42.058;25.586;2023-02-28T00:11:05;19.40;;;8.47;;
7831;SDS011;3961;42.058;25.586;2023-02-28T00:13:33;13.87;;;8.23;;
7831;SDS011;3961;42.058;25.586;2023-02-28T00:16:06;14.97;;;7.60;;
7831;SDS011;3961;42.058;25.586;2023-02-28T00:18:34;14.33;;;7.93;;
7831;SDS011;3961;42.058;25.586;2023-02-28T00:21:00;19.93;;;8.70;;
7831;SDS011;3961;42.058;25.586;2023-02-28T00:23:26;13.07;;;7.60;;
7831;SDS011;3961;42.058;25.586;2023-02-28T00:25:52;17.20;;;8.67;;
7831;SDS011;3961;42.058;25.586;2023-02-28T00:28:19;13.63;;;8.07;;
7831;SDS011;3961;42.058;25.586;2023-02-28T00:30:45;20.33;;;9.17;;
7831;SDS011;3961;42.058;25.586;2023-02-28T00:33:11;19.63;;;9.10;;
7831;SDS011;3961;42.058;25.586;2023-02-28T00:35:37;21.47;;;9.17;;
7831;SDS011;3961;42.058;25.586;2023-02-28T00:38:03;16.33;;;8.40;;
7831;SDS011;3961;42.058;25.586;2023-02-28T00:40:28;15.37;;;8.90;;
7831;SDS011;3961;42.058;25.586;2023-02-28T00:42:54;18.60;;;8.83;;
7831;SDS011;3961;42.058;25.586;2023-02-28T00:45:20;16.13;;;8.67;;
7831;SDS011;3961;42.058;25.586;2023-02-28T00:47:45;16.23;;;8.17;;
7831;SDS011;3961;42.058;25.586;2023-02-28T00:50:14;16.60;;;8.50;;
7831;SDS011;3961;42.058;25.586;2023-02-28T00:52:43;18.10;;;8.47;;
7831;SDS011;3961;42.058;25.586;2023-02-28T00:55:09;17.60;;;9.00;;
7831;SDS011;3961;42.058;25.586;2023-02-28T00:57:35;16.47;;;9.03;;
7831;SDS011;3961;42.058;25.586;2023-02-28T01:00:00;16.70;;;8.60;;
7831;SDS011;3961;42.058;25.586;2023-02-28T01:02:26;21.13;;;8.83;;
7831;SDS011;3961;42.058;25.586;2023-02-28T01:04:52;18.73;;;8.73;;
7831;SDS011;3961;42.058;25.586;2023-02-28T01:07:17;18.33;;;8.40;;
7831;SDS011;3961;42.058;25.586;2023-02-28T01:09:43;19.70;;;9.63;;
7831;SDS011;3961;42.058;25.586;2023-02-28T01:12:08;17.30;;;9.33;;
7831;SDS011;3961;42.058;25.586;2023-02-28T01:14:34;18.23;;;8.53;;
7831;SDS011;3961;42.058;25.586;2023-02-28T01:17:00;20.43;;;9.67;;
7831;SDS011;3961;42.058;25.586;2023-02-28T01:19:26;17.37;;;9.47;;
7831;SDS011;3961;42.058;25.586;2023-02-28T01:21:51;16.83;;;9.20;;
7831;SDS011;3961;42.058;25.586;2023-02-28T01:24:17;27.13;;;10.10;;
7831;SDS011;3961;42.058;25.586;2023-02-28T01:26:43;14.77;;;8.53;;
7831;SDS011;3961;42.058;25.586;2023-02-28T01:29:08;14.93;;;8.80;;
7831;SDS011;3961;42.058;25.586;2023-02-28T01:31:34;15.60;;;9.30;;
7831;SDS011;3961;42.058;25.586;2023-02-28T01:33:59;18.20;;;8.83;;
7831;SDS011;3961;42.058;25.586;2023-02-28T01:36:25;19.10;;;8.75;;
7831;SDS011;3961;42.058;25.586;2023-02-28T01:38:50;16.43;;;8.30;;
7831;SDS011;3961;42.058;25.586;2023-02-28T01:41:17;14.20;;;8.73;;
7831;SDS011;3961;42.058;25.586;2023-02-28T01:46:13;17.30;;;9.10;;
7831;SDS011;3961;42.058;25.586;2023-02-28T01:48:44;18.03;;;8.47;;
7831;SDS011;3961;42.058;25.586;2023-02-28T01:51:19;14.00;;;7.87;;
7831;SDS011;3961;42.058;25.586;2023-02-28T01:53:51;17.67;;;8.00;;
7831;SDS011;3961;42.058;25.586;2023-02-28T01:56:22;12.60;;;7.50;;
7831;SDS011;3961;42.058;25.586;2023-02-28T01:58:51;16.67;;;7.47;;
7831;SDS011;3961;42.058;25.586;2023-02-28T02:01:19;17.17;;;7.07;;
7831;SDS011;3961;42.058;25.586;2023-02-28T02:04:04;12.37;;;6.33;;
7831;SDS011;3961;42.058;25.586;2023-02-28T02:06:33;17.87;;;6.83;;
7831;SDS011;3961;42.058;25.586;2023-02-28T02:09:01;11.97;;;6.73;;
7831;SDS011;3961;42.058;25.586;2023-02-28T02:11:27;13.97;;;6.57;;
7831;SDS011;3961;42.058;25.586;2023-02-28T02:27:55;10.13;;;5.03;;
7831;SDS011;3961;42.058;25.586;2023-02-28T02:34:00;6.53;;;4.50;;
7831;SDS011;3961;42.058;25.586;2023-02-28T02:36:27;12.63;;;5.53;;
7831;SDS011;3961;42.058;25.586;2023-02-28T02:41:45;12.07;;;4.77;;
7831;SDS011;3961;42.058;25.586;2023-02-28T02:44:26;8.63;;;5.13;;
7831;SDS011;3961;42.058;25.586;2023-02-28T02:46:58;9.33;;;5.47;;
7831;SDS011;3961;42.058;25.586;2023-02-28T02:49:30;7.97;;;5.10;;
7831;SDS011;3961;42.058;25.586;2023-02-28T02:51:57;8.43;;;5.90;;
7831;SDS011;3961;42.058;25.586;2023-02-28T02:54:30;8.93;;;5.57;;
7831;SDS011;3961;42.058;25.586;2023-02-28T02:57:01;8.53;;;5.47;;
7831;SDS011;3961;42.058;25.586;2023-02-28T02:59:31;10.20;;;5.10;;
7831;SDS011;3961;42.058;25.586;2023-02-28T03:02:02;9.67;;;6.00;;
7831;SDS011;3961;42.058;25.586;2023-02-28T03:04:32;7.03;;;5.40;;
7831;SDS011;3961;42.058;25.586;2023-02-28T03:07:03;10.00;;;5.50;;
7831;SDS011;3961;42.058;25.586;2023-02-28T03:09:29;7.93;;;5.57;;
7831;SDS011;3961;42.058;25.586;2023-02-28T03:12:00;9.13;;;5.67;;
7831;SDS011;3961;42.058;25.586;2023-02-28T03:14:35;7.73;;;5.70;;
7831;SDS011;3961;42.058;25.586;2023-02-28T03:20:07;9.00;;;5.30;;
7831;SDS011;3961;42.058;25.586;2023-02-28T03:28:09;7.00;;;4.97;;
7831;SDS011;3961;42.058;25.586;2023-02-28T03:30:51;8.60;;;5.37;;
7831;SDS011;3961;42.058;25.586;2023-02-28T03:33:26;7.50;;;5.17;;
7831;SDS011;3961;42.058;25.586;2023-02-28T03:35:56;8.47;;;5.50;;
7831;SDS011;3961;42.058;25.586;2023-02-28T03:38:31;9.93;;;4.80;;
7831;SDS011;3961;42.058;25.586;2023-02-28T03:41:07;7.47;;;5.10;;
7831;SDS011;3961;42.058;25.586;2023-02-28T03:43:40;9.67;;;4.73;;
7831;SDS011;3961;42.058;25.586;2023-02-28T03:46:10;5.90;;;5.00;;
7831;SDS011;3961;42.058;25.586;2023-02-28T03:48:43;7.10;;;5.00;;
7831;SDS011;3961;42.058;25.586;2023-02-28T03:51:15;7.77;;;4.67;;
7831;SDS011;3961;42.058;25.586;2023-02-28T03:53:45;8.00;;;4.90;;
7831;SDS011;3961;42.058;25.586;2023-02-28T03:56:20;14.27;;;5.47;;
7831;SDS011;3961;42.058;25.586;2023-02-28T04:01:48;12.43;;;5.93;;
7831;SDS011;3961;42.058;25.586;2023-02-28T04:04:15;7.10;;;5.10;;
7831;SDS011;3961;42.058;25.586;2023-02-28T04:06:41;8.23;;;5.60;;
7831;SDS011;3961;42.058;25.586;2023-02-28T04:09:08;6.50;;;5.10;;
7831;SDS011;3961;42.058;25.586;2023-02-28T04:11:37;10.23;;;5.57;;
7831;SDS011;3961;42.058;25.586;2023-02-28T04:14:04;11.13;;;5.13;;
7831;SDS011;3961;42.058;25.586;2023-02-28T04:16:31;7.53;;;5.50;;
7831;SDS011;3961;42.058;25.586;2023-02-28T04:18:58;10.33;;;5.73;;
7831;SDS011;3961;42.058;25.586;2023-02-28T04:21:28;7.53;;;5.30;;
7831;SDS011;3961;42.058;25.586;2023-02-28T04:23:54;8.50;;;5.73;;
7831;SDS011;3961;42.058;25.586;2023-02-28T04:26:20;9.40;;;5.10;;
7831;SDS011;3961;42.058;25.586;2023-02-28T04:28:46;12.30;;;5.80;;
7831;SDS011;3961;42.058;25.586;2023-02-28T04:31:11;12.50;;;6.27;;
7831;SDS011;3961;42.058;25.586;2023-02-28T04:33:36;8.50;;;6.03;;
7831;SDS011;3961;42.058;25.586;2023-02-28T04:36:03;8.47;;;6.07;;
7831;SDS011;3961;42.058;25.586;2023-02-28T04:38:34;10.60;;;6.67;;
7831;SDS011;3961;42.058;25.586;2023-02-28T04:41:01;9.83;;;6.07;;
7831;SDS011;3961;42.058;25.586;2023-02-28T04:43:27;6.63;;;5.43;;
7831;SDS011;3961;42.058;25.586;2023-02-28T04:45:53;9.30;;;6.13;;
7831;SDS011;3961;42.058;25.586;2023-02-28T04:48:23;10.33;;;6.23;;
7831;SDS011;3961;42.058;25.586;2023-02-28T04:50:50;11.03;;;5.90;;
7831;SDS011;3961;42.058;25.586;2023-02-28T04:53:16;9.23;;;6.47;;
7831;SDS011;3961;42.058;25.586;2023-02-28T04:55:42;8.17;;;6.30;;
7831;SDS011;3961;42.058;25.586;2023-02-28T04:58:08;9.33;;;6.43;;
7831;SDS011;3961;42.058;25.586;2023-02-28T05:00:33;11.40;;;7.03;;
7831;SDS011;3961;42.058;25.586;2023-02-28T05:02:59;10.27;;;7.17;;
7831;SDS011;3961;42.058;25.586;2023-02-28T05:05:24;10.00;;;7.80;;
7831;SDS011;3961;42.058;25.586;2023-02-28T05:07:50;13.40;;;7.00;;
7831;SDS011;3961;42.058;25.586;2023-02-28T05:10:15;10.90;;;7.63;;
7831;SDS011;3961;42.058;25.586;2023-02-28T05:12:41;10.00;;;7.10;;
7831;SDS011;3961;42.058;25.586;2023-02-28T05:15:07;10.13;;;6.77;;
7831;SDS011;3961;42.058;25.586;2023-02-28T05:17:37;14.47;;;7.53;;
7831;SDS011;3961;42.058;25.586;2023-02-28T05:20:03;12.07;;;7.73;;
7831;SDS011;3961;42.058;25.586;2023-02-28T05:22:30;11.13;;;7.53;;
7831;SDS011;3961;42.058;25.586;2023-02-28T05:24:56;15.87;;;8.07;;
7831;SDS011;3961;42.058;25.586;2023-02-28T05:27:21;11.50;;;7.60;;
7831;SDS011;3961;42.058;25.586;2023-02-28T05:29:46;12.80;;;7.97;;
7831;SDS011;3961;42.058;25.586;2023-02-28T05:32:12;11.83;;;8.47;;
7831;SDS011;3961;42.058;25.586;2023-02-28T05:34:38;13.17;;;8.53;;
7831;SDS011;3961;42.058;25.586;2023-02-28T05:37:05;15.63;;;8.83;;
7831;SDS011;3961;42.058;25.586;2023-02-28T05:39:32;14.50;;;10.03;;
7831;SDS011;3961;42.058;25.586;2023-02-28T05:41:57;15.03;;;10.10;;
7831;SDS011;3961;42.058;25.586;2023-02-28T05:44:23;13.90;;;9.03;;
7831;SDS011;3961;42.058;25.586;2023-02-28T05:46:49;17.50;;;10.67;;
7831;SDS011;3961;42.058;25.586;2023-02-28T05:49:14;17.07;;;11.10;;
7831;SDS011;3961;42.058;25.586;2023-02-28T05:51:40;19.17;;;11.93;;
7831;SDS011;3961;42.058;25.586;2023-02-28T05:54:05;18.40;;;12.20;;
7831;SDS011;3961;42.058;25.586;2023-02-28T05:56:32;21.93;;;15.53;;
7831;SDS011;3961;42.058;25.586;2023-02-28T05:58:59;25.73;;;12.77;;
7831;SDS011;3961;42.058;25.586;2023-02-28T06:04:02;24.20;;;16.23;;
7831;SDS011;3961;42.058;25.586;2023-02-28T06:06:29;23.83;;;14.70;;
7831;SDS011;3961;42.058;25.586;2023-02-28T06:08:55;24.10;;;15.50;;
7831;SDS011;3961;42.058;25.586;2023-02-28T06:11:21;26.20;;;16.70;;
7831;SDS011;3961;42.058;25.586;2023-02-28T06:13:52;28.33;;;18.47;;
7831;SDS011;3961;42.058;25.586;2023-02-28T06:16:22;28.67;;;19.33;;
7831;SDS011;3961;42.058;25.586;2023-02-28T06:18:50;33.07;;;18.60;;
7831;SDS011;3961;42.058;25.586;2023-02-28T06:21:15;30.70;;;18.53;;
7831;SDS011;3961;42.058;25.586;2023-02-28T06:23:41;34.07;;;18.33;;
7831;SDS011;3961;42.058;25.586;2023-02-28T06:26:06;29.37;;;18.93;;
7831;SDS011;3961;42.058;25.586;2023-02-28T06:28:32;27.90;;;17.37;;
7831;SDS011;3961;42.058;25.586;2023-02-28T06:30:57;27.30;;;17.70;;
7831;SDS011;3961;42.058;25.586;2023-02-28T06:33:23;29.17;;;18.40;;
7831;SDS011;3961;42.058;25.586;2023-02-28T06:35:51;28.53;;;18.40;;
7831;SDS011;3961;42.058;25.586;2023-02-28T06:38:17;29.17;;;19.57;;
7831;SDS011;3961;42.058;25.586;2023-02-28T06:40:43;32.23;;;20.30;;
7831;SDS011;3961;42.058;25.586;2023-02-28T06:43:09;32.17;;;18.70;;
7831;SDS011;3961;42.058;25.586;2023-02-28T06:45:41;30.60;;;18.40;;
7831;SDS011;3961;42.058;25.586;2023-02-28T06:48:08;32.83;;;18.23;;
7831;SDS011;3961;42.058;25.586;2023-02-28T06:50:34;30.20;;;18.63;;
7831;SDS011;3961;42.058;25.586;2023-02-28T06:52:59;28.17;;;17.63;;
7831;SDS011;3961;42.058;25.586;2023-02-28T06:55:25;29.47;;;19.97;;
7831;SDS011;3961;42.058;25.586;2023-02-28T06:57:51;29.07;;;16.53;;
7831;SDS011;3961;42.058;25.586;2023-02-28T07:00:16;28.23;;;17.60;;
7831;SDS011;3961;42.058;25.586;2023-02-28T07:02:42;26.00;;;17.47;;
7831;SDS011;3961;42.058;25.586;2023-02-28T07:05:07;28.70;;;16.57;;
7831;SDS011;3961;42.058;25.586;2023-02-28T07:07:33;27.17;;;16.97;;
7831;SDS011;3961;42.058;25.586;2023-02-28T07:10:01;25.27;;;16.93;;
7831;SDS011;3961;42.058;25.586;2023-02-28T07:12:27;27.03;;;18.90;;
7831;SDS011;3961;42.058;25.586;2023-02-28T07:14:52;43.83;;;27.23;;
7831;SDS011;3961;42.058;25.586;2023-02-28T07:17:19;43.43;;;26.63;;
7831;SDS011;3961;42.058;25.586;2023-02-28T07:19:45;37.13;;;20.37;;
7831;SDS011;3961;42.058;25.586;2023-02-28T07:22:10;23.13;;;15.63;;
7831;SDS011;3961;42.058;25.586;2023-02-28T07:24:35;23.17;;;15.70;;
7831;SDS011;3961;42.058;25.586;2023-02-28T07:27:01;23.83;;;16.43;;
7831;SDS011;3961;42.058;25.586;2023-02-28T07:29:26;29.03;;;17.47;;
7831;SDS011;3961;42.058;25.586;2023-02-28T07:31:52;25.03;;;15.87;;
7831;SDS011;3961;42.058;25.586;2023-02-28T07:34:18;24.43;;;15.03;;
7831;SDS011;3961;42.058;25.586;2023-02-28T07:36:44;24.23;;;15.27;;
7831;SDS011;3961;42.058;25.586;2023-02-28T07:39:10;22.77;;;14.30;;
7831;SDS011;3961;42.058;25.586;2023-02-28T07:41:35;21.87;;;14.73;;
7831;SDS011;3961;42.058;25.586;2023-02-28T07:44:11;23.47;;;14.97;;
7831;SDS011;3961;42.058;25.586;2023-02-28T07:46:37;23.13;;;15.33;;
7831;SDS011;3961;42.058;25.586;2023-02-28T07:49:03;24.70;;;13.90;;
7831;SDS011;3961;42.058;25.586;2023-02-28T07:51:29;27.77;;;14.90;;
7831;SDS011;3961;42.058;25.586;2023-02-28T07:53:56;21.37;;;13.23;;
7831;SDS011;3961;42.058;25.586;2023-02-28T07:56:22;18.73;;;12.73;;
7831;SDS011;3961;42.058;25.586;2023-02-28T07:58:47;21.47;;;14.00;;
7831;SDS011;3961;42.058;25.586;2023-02-28T08:01:13;24.83;;;14.20;;
7831;SDS011;3961;42.058;25.586;2023-02-28T08:03:38;26.93;;;13.93;;
7831;SDS011;3961;42.058;25.586;2023-02-28T08:06:05;19.87;;;13.53;;
7831;SDS011;3961;42.058;25.586;2023-02-28T08:08:33;19.27;;;13.80;;
7831;SDS011;3961;42.058;25.586;2023-02-28T08:10:59;27.33;;;13.90;;
7831;SDS011;3961;42.058;25.586;2023-02-28T08:13:26;20.43;;;14.10;;
7831;SDS011;3961;42.058;25.586;2023-02-28T08:15:53;19.70;;;12.77;;
7831;SDS011;3961;42.058;25.586;2023-02-28T08:18:20;22.20;;;14.10;;
7831;SDS011;3961;42.058;25.586;2023-02-28T08:20:46;21.03;;;13.53;;
7831;SDS011;3961;42.058;25.586;2023-02-28T08:23:11;20.93;;;13.63;;
7831;SDS011;3961;42.058;25.586;2023-02-28T08:25:37;28.80;;;14.90;;
7831;SDS011;3961;42.058;25.586;2023-02-28T08:28:02;23.77;;;13.73;;
7831;SDS011;3961;42.058;25.586;2023-02-28T08:30:28;21.80;;;13.67;;
7831;SDS011;3961;42.058;25.586;2023-02-28T08:32:54;34.00;;;16.03;;
7831;SDS011;3961;42.058;25.586;2023-02-28T08:35:20;23.27;;;13.60;;
7831;SDS011;3961;42.058;25.586;2023-02-28T08:37:49;24.17;;;14.87;;
7831;SDS011;3961;42.058;25.586;2023-02-28T08:40:15;23.10;;;14.40;;
7831;SDS011;3961;42.058;25.586;2023-02-28T08:42:46;24.60;;;14.87;;
7831;SDS011;3961;42.058;25.586;2023-02-28T08:45:15;22.87;;;13.70;;
7831;SDS011;3961;42.058;25.586;2023-02-28T08:47:41;28.33;;;15.57;;
7831;SDS011;3961;42.058;25.586;2023-02-28T08:50:06;25.83;;;14.90;;
7831;SDS011;3961;42.058;25.586;2023-02-28T08:52:33;26.43;;;14.67;;
7831;SDS011;3961;42.058;25.586;2023-02-28T08:54:58;22.53;;;14.10;;
7831;SDS011;3961;42.058;25.586;2023-02-28T08:57:24;22.17;;;13.83;;
7831;SDS011;3961;42.058;25.586;2023-02-28T08:59:51;19.83;;;13.37;;
7831;SDS011;3961;42.058;25.586;2023-02-28T09:02:17;19.93;;;13.57;;
7831;SDS011;3961;42.058;25.586;2023-02-28T09:04:43;21.83;;;13.50;;
7831;SDS011;3961;42.058;25.586;2023-02-28T09:07:10;18.43;;;12.53;;
7831;SDS011;3961;42.058;25.586;2023-02-28T09:09:37;15.80;;;12.70;;
7831;SDS011;3961;42.058;25.586;2023-02-28T09:12:03;18.77;;;12.73;;
7831;SDS011;3961;42.058;25.586;2023-02-28T09:14:30;19.77;;;13.80;;
7831;SDS011;3961;42.058;25.586;2023-02-28T09:16:56;18.00;;;12.73;;
7831;SDS011;3961;42.058;25.586;2023-02-28T09:19:21;18.93;;;12.10;;
7831;SDS011;3961;42.058;25.586;2023-02-28T09:21:47;20.87;;;13.27;;
7831;SDS011;3961;42.058;25.586;2023-02-28T09:24:13;17.93;;;13.83;;
7831;SDS011;3961;42.058;25.586;2023-02-28T09:26:40;20.50;;;13.00;;
7831;SDS011;3961;42.058;25.586;2023-02-28T09:29:06;23.30;;;14.03;;
7831;SDS011;3961;42.058;25.586;2023-02-28T09:31:31;19.73;;;13.00;;
7831;SDS011;3961;42.058;25.586;2023-02-28T09:33:58;19.53;;;11.93;;
7831;SDS011;3961;42.058;25.586;2023-02-28T09:36:25;18.87;;;11.70;;
7831;SDS011;3961;42.058;25.586;2023-02-28T09:38:51;16.00;;;10.70;;
7831;SDS011;3961;42.058;25.586;2023-02-28T09:41:27;17.47;;;10.23;;
7831;SDS011;3961;42.058;25.586;2023-02-28T09:44:04;17.83;;;11.53;;
7831;SDS011;3961;42.058;25.586;2023-02-28T09:46:34;19.57;;;11.40;;
7831;SDS011;3961;42.058;25.586;2023-02-28T09:49:12;15.63;;;11.30;;
7831;SDS011;3961;42.058;25.586;2023-02-28T09:51:46;18.67;;;11.03;;
7831;SDS011;3961;42.058;25.586;2023-02-28T09:54:20;13.23;;;10.70;;
7831;SDS011;3961;42.058;25.586;2023-02-28T10:05:43;50.33;;;31.10;;
7831;SDS011;3961;42.058;25.586;2023-02-28T10:08:29;28.93;;;19.33;;
7831;SDS011;3961;42.058;25.586;2023-02-28T10:11:00;18.30;;;11.60;;
7831;SDS011;3961;42.058;25.586;2023-02-28T10:16:20;13.47;;;9.90;;
7831;SDS011;3961;42.058;25.586;2023-02-28T10:19:02;13.60;;;9.23;;
7831;SDS011;3961;42.058;25.586;2023-02-28T10:21:37;12.73;;;8.70;;
7831;SDS011;3961;42.058;25.586;2023-02-28T10:26:45;14.93;;;9.63;;
7831;SDS011;3961;42.058;25.586;2023-02-28T10:29:12;12.60;;;9.53;;
7831;SDS011;3961;42.058;25.586;2023-02-28T10:31:39;14.70;;;9.93;;
7831;SDS011;3961;42.058;25.586;2023-02-28T10:34:05;15.90;;;10.70;;
7831;SDS011;3961;42.058;25.586;2023-02-28T10:36:31;16.90;;;9.90;;
7831;SDS011;3961;42.058;25.586;2023-02-28T10:38:57;13.50;;;10.00;;
7831;SDS011;3961;42.058;25.586;2023-02-28T10:41:29;15.43;;;10.50;;
7831;SDS011;3961;42.058;25.586;2023-02-28T10:44:13;16.13;;;10.03;;
7831;SDS011;3961;42.058;25.586;2023-02-28T10:46:43;16.13;;;9.83;;
7831;SDS011;3961;42.058;25.586;2023-02-28T10:49:17;17.33;;;9.77;;
7831;SDS011;3961;42.058;25.586;2023-02-28T10:51:47;14.80;;;10.23;;
7831;SDS011;3961;42.058;25.586;2023-02-28T10:59:50;15.10;;;10.13;;
7831;SDS011;3961;42.058;25.586;2023-02-28T11:02:36;14.33;;;9.10;;
7831;SDS011;3961;42.058;25.586;2023-02-28T11:05:22;15.40;;;9.37;;
7831;SDS011;3961;42.058;25.586;2023-02-28T11:07:54;12.97;;;9.27;;
7831;SDS011;3961;42.058;25.586;2023-02-28T11:10:23;10.93;;;8.70;;
7831;SDS011;3961;42.058;25.586;2023-02-28T11:12:54;12.13;;;9.50;;
7831;SDS011;3961;42.058;25.586;2023-02-28T11:15:25;15.77;;;9.43;;
7831;SDS011;3961;42.058;25.586;2023-02-28T11:17:56;11.10;;;9.00;;
7831;SDS011;3961;42.058;25.586;2023-02-28T11:20:26;10.60;;;8.60;;
7831;SDS011;3961;42.058;25.586;2023-02-28T11:22:55;13.23;;;9.07;;
7831;SDS011;3961;42.058;25.586;2023-02-28T11:25:26;14.23;;;9.50;;
7831;SDS011;3961;42.058;25.586;2023-02-28T11:28:00;14.40;;;9.37;;
7831;SDS011;3961;42.058;25.586;2023-02-28T11:30:37;17.50;;;9.77;;
7831;SDS011;3961;42.058;25.586;2023-02-28T11:35:51;17.17;;;10.03;;
7831;SDS011;3961;42.058;25.586;2023-02-28T11:38:20;11.77;;;8.90;;
7831;SDS011;3961;42.058;25.586;2023-02-28T11:43:33;11.10;;;8.60;;
7831;SDS011;3961;42.058;25.586;2023-02-28T12:03:16;12.33;;;8.30;;
7831;SDS011;3961;42.058;25.586;2023-02-28T12:05:45;9.63;;;7.00;;
7831;SDS011;3961;42.058;25.586;2023-02-28T12:19:29;15.93;;;7.73;;
7831;SDS011;3961;42.058;25.586;2023-02-28T12:27:20;17.83;;;9.47;;
7831;SDS011;3961;42.058;25.586;2023-02-28T12:29:52;16.87;;;8.47;;
7831;SDS011;3961;42.058;25.586;2023-02-28T12:37:36;11.90;;;8.63;;
7831;SDS011;3961;42.058;25.586;2023-02-28T12:40:13;14.00;;;7.93;;
7831;SDS011;3961;42.058;25.586;2023-02-28T12:42:55;17.67;;;9.47;;
7831;SDS011;3961;42.058;25.586;2023-02-28T12:48:59;12.57;;;9.17;;
7831;SDS011;3961;42.058;25.586;2023-02-28T12:51:02;14.57;;;9.67;;
7831;SDS011;3961;42.058;25.586;2023-02-28T12:53:35;17.57;;;11.17;;
7831;SDS011;3961;42.058;25.586;2023-02-28T12:56:17;14.90;;;11.03;;
7831;SDS011;3961;42.058;25.586;2023-02-28T12:58:50;18.87;;;10.97;;
7831;SDS011;3961;42.058;25.586;2023-02-28T13:09:23;19.03;;;10.97;;
7831;SDS011;3961;42.058;25.586;2023-02-28T13:11:50;20.37;;;9.87;;
7831;SDS011;3961;42.058;25.586;2023-02-28T13:19:33;18.03;;;10.43;;
7831;SDS011;3961;42.058;25.586;2023-02-28T13:22:01;19.27;;;11.03;;
7831;SDS011;3961;42.058;25.586;2023-02-28T13:24:44;17.03;;;10.57;;
7831;SDS011;3961;42.058;25.586;2023-02-28T13:27:17;18.00;;;12.00;;
7831;SDS011;3961;42.058;25.586;2023-02-28T13:29:53;17.17;;;12.07;;
7831;SDS011;3961;42.058;25.586;2023-02-28T13:32:20;22.27;;;11.93;;
7831;SDS011;3961;42.058;25.586;2023-02-28T13:37:32;21.30;;;12.10;;
7831;SDS011;3961;42.058;25.586;2023-02-28T13:42:35;21.53;;;14.03;;
7831;SDS011;3961;42.058;25.586;2023-02-28T13:55:43;22.47;;;13.17;;
7831;SDS011;3961;42.058;25.586;2023-02-28T13:58:28;27.43;;;14.57;;
7831;SDS011;3961;42.058;25.586;2023-02-28T14:04:15;22.50;;;14.77;;
7831;SDS011;3961;42.058;25.586;2023-02-28T14:06:57;19.50;;;13.40;;
7831;SDS011;3961;42.058;25.586;2023-02-28T14:09:27;20.30;;;14.07;;
7831;SDS011;3961;42.058;25.586;2023-02-28T14:11:57;22.13;;;13.60;;
7831;SDS011;3961;42.058;25.586;2023-02-28T14:17:12;20.37;;;14.03;;
7831;SDS011;3961;42.058;25.586;2023-02-28T14:19:41;22.93;;;13.87;;
7831;SDS011;3961;42.058;25.586;2023-02-28T14:30:42;19.93;;;14.37;;
7831;SDS011;3961;42.058;25.586;2023-02-28T14:36:16;21.90;;;13.10;;
7831;SDS011;3961;42.058;25.586;2023-02-28T14:41:16;23.00;;;14.40;;
7831;SDS011;3961;42.058;25.586;2023-02-28T14:43:49;25.27;;;15.30;;
7831;SDS011;3961;42.058;25.586;2023-02-28T14:46:17;24.77;;;13.53;;
7831;SDS011;3961;42.058;25.586;2023-02-28T14:48:45;25.03;;;13.70;;
7831;SDS011;3961;42.058;25.586;2023-02-28T14:51:13;23.33;;;13.90;;
7831;SDS011;3961;42.058;25.586;2023-02-28T14:53:43;23.93;;;13.33;;
7831;SDS011;3961;42.058;25.586;2023-02-28T14:56:34;18.97;;;13.07;;
7831;SDS011;3961;42.058;25.586;2023-02-28T14:59:02;21.53;;;13.63;;
7831;SDS011;3961;42.058;25.586;2023-02-28T15:01:28;26.03;;;17.57;;
7831;SDS011;3961;42.058;25.586;2023-02-28T15:04:16;22.80;;;13.77;;
7831;SDS011;3961;42.058;25.586;2023-02-28T15:07:13;20.77;;;12.97;;
7831;SDS011;3961;42.058;25.586;2023-02-28T15:09:40;20.63;;;12.73;;
7831;SDS011;3961;42.058;25.586;2023-02-28T15:12:06;20.27;;;12.37;;
7831;SDS011;3961;42.058;25.586;2023-02-28T15:14:32;18.43;;;12.40;;
7831;SDS011;3961;42.058;25.586;2023-02-28T15:17:05;21.00;;;12.47;;
7831;SDS011;3961;42.058;25.586;2023-02-28T15:19:37;16.93;;;11.10;;
7831;SDS011;3961;42.058;25.586;2023-02-28T15:22:11;18.83;;;11.57;;
7831;SDS011;3961;42.058;25.586;2023-02-28T15:24:48;17.50;;;11.20;;
7831;SDS011;3961;42.058;25.586;2023-02-28T15:27:20;17.80;;;10.43;;
7831;SDS011;3961;42.058;25.586;2023-02-28T15:29:50;20.47;;;11.13;;
7831;SDS011;3961;42.058;25.586;2023-02-28T15:32:29;18.60;;;11.23;;
7831;SDS011;3961;42.058;25.586;2023-02-28T15:34:57;25.53;;;17.23;;
7831;SDS011;3961;42.058;25.586;2023-02-28T15:37:52;14.23;;;10.27;;
7831;SDS011;3961;42.058;25.586;2023-02-28T15:40:24;14.37;;;9.53;;
7831;SDS011;3961;42.058;25.586;2023-02-28T15:48:35;11.90;;;7.93;;
7831;SDS011;3961;42.058;25.586;2023-02-28T15:51:07;11.00;;;8.10;;
7831;SDS011;3961;42.058;25.586;2023-02-28T15:53:39;10.93;;;8.60;;
7831;SDS011;3961;42.058;25.586;2023-02-28T15:59:13;12.60;;;8.03;;
7831;SDS011;3961;42.058;25.586;2023-02-28T16:01:45;9.23;;;7.40;;
7831;SDS011;3961;42.058;25.586;2023-02-28T16:09:06;9.83;;;7.37;;
7831;SDS011;3961;42.058;25.586;2023-02-28T16:11:35;11.13;;;7.97;;
7831;SDS011;3961;42.058;25.586;2023-02-28T16:14:04;11.73;;;8.27;;
7831;SDS011;3961;42.058;25.586;2023-02-28T16:16:30;10.77;;;7.97;;
7831;SDS011;3961;42.058;25.586;2023-02-28T16:18:56;11.80;;;7.93;;
7831;SDS011;3961;42.058;25.586;2023-02-28T16:21:22;10.87;;;7.70;;
7831;SDS011;3961;42.058;25.586;2023-02-28T16:23:49;14.43;;;8.00;;
7831;SDS011;3961;42.058;25.586;2023-02-28T16:26:20;10.67;;;7.40;;
7831;SDS011;3961;42.058;25.586;2023-02-28T16:28:48;8.97;;;7.00;;
7831;SDS011;3961;42.058;25.586;2023-02-28T16:31:15;8.37;;;6.33;;
7831;SDS011;3961;42.058;25.586;2023-02-28T16:33:42;7.63;;;6.03;;
7831;SDS011;3961;42.058;25.586;2023-02-28T16:36:12;8.37;;;6.40;;
7831;SDS011;3961;42.058;25.586;2023-02-28T16:38:39;9.97;;;6.33;;
7831;SDS011;3961;42.058;25.586;2023-02-28T16:41:05;6.47;;;5.73;;
7831;SDS011;3961;42.058;25.586;2023-02-28T16:43:31;7.37;;;5.50;;
7831;SDS011;3961;42.058;25.586;2023-02-28T16:45:57;8.77;;;5.67;;
7831;SDS011;3961;42.058;25.586;2023-02-28T16:48:24;6.70;;;5.07;;
7831;SDS011;3961;42.058;25.586;2023-02-28T16:50:50;5.30;;;4.47;;
7831;SDS011;3961;42.058;25.586;2023-02-28T16:53:15;7.70;;;4.97;;
7831;SDS011;3961;42.058;25.586;2023-02-28T16:55:41;6.93;;;5.50;;
7831;SDS011;3961;42.058;25.586;2023-02-28T16:58:10;6.43;;;4.57;;
7831;SDS011;3961;42.058;25.586;2023-02-28T17:00:39;5.83;;;4.60;;
7831;SDS011;3961;42.058;25.586;2023-02-28T17:03:08;7.67;;;4.83;;
7831;SDS011;3961;42.058;25.586;2023-02-28T17:05:40;5.83;;;4.33;;
7831;SDS011;3961;42.058;25.586;2023-02-28T17:08:05;5.03;;;4.30;;
7831;SDS011;3961;42.058;25.586;2023-02-28T17:10:31;5.20;;;4.50;;
7831;SDS011;3961;42.058;25.586;2023-02-28T17:12:56;6.10;;;4.30;;
7831;SDS011;3961;42.058;25.586;2023-02-28T17:15:22;4.27;;;3.80;;
7831;SDS011;3961;42.058;25.586;2023-02-28T17:17:48;6.13;;;4.07;;
7831;SDS011;3961;42.058;25.586;2023-02-28T17:20:20;5.83;;;4.47;;
7831;SDS011;3961;42.058;25.586;2023-02-28T17:22:51;4.30;;;3.90;;
7831;SDS011;3961;42.058;25.586;2023-02-28T17:25:17;3.80;;;3.47;;
7831;SDS011;3961;42.058;25.586;2023-02-28T17:27:43;5.20;;;3.83;;
7831;SDS011;3961;42.058;25.586;2023-02-28T17:32:37;5.47;;;3.43;;
7831;SDS011;3961;42.058;25.586;2023-02-28T17:35:03;4.27;;;3.43;;
7831;SDS011;3961;42.058;25.586;2023-02-28T17:37:29;4.40;;;3.60;;
7831;SDS011;3961;42.058;25.586;2023-02-28T17:39:54;5.40;;;3.13;;
7831;SDS011;3961;42.058;25.586;2023-02-28T17:42:20;4.20;;;3.40;;
7831;SDS011;3961;42.058;25.586;2023-02-28T17:44:45;3.70;;;3.40;;